Raton, NM (87740)

10:37 AM MDT on July 24, 2014 (GMT -0600)
Near Historic Downtown (KNMRATON4) Elev 6709 ft | 36.90 °N, 104.44 °W | Change Station

Current weather conditions updated 14 minutes ago

Clear
Clear
77.6 °F
Feels Like 79 °F
N
0.0
Wind Variable Wind from South

Today is forecast to be Cooler than yesterday.

Today
High -- | Low -- °F
--% Chance of Precip.
Yesterday
High -- | Low -- °F
Precip. -- in
5:57 AM 8:12 PM
Waning Crescent, 5% visible
Pressure 29.95 in
Visibility 10.0 miles
Clouds Clear
Heat Index 79 °F
Dew Point 57 °F
Humidity 49%
Rainfall 0.00 in
Snow Depth Not available.
UV 7 out of 12
Pollen 7.40 out of 12
Air Quality Not available.
Flu Activity Not available.
METAR KTAD 241554Z AUTO 24014KT 10SM CLR 29/08 A3024 RMK AO2 SLP142 T02940083

More Conditions Fewer Conditions

Pressure 29.95 in
Visibility 10.0 miles
Clouds Clear
Heat Index 79 °F
Dew Point 57 °F
Humidity 49%
Rainfall 0.00 in
Snow Depth Not available.
UV 7 out of 12
Pollen 7.40 out of 12
Air Quality Not available.
Flu Activity Not available.
METAR KTAD 241554Z AUTO 24014KT 10SM CLR 29/08 A3024 RMK AO2 SLP142 T02940083

More Conditions Fewer Conditions

10-Day Weather Forecast

Almanac

Astronomy

Jul. 24, 2014 Rise Set
Actual Time 5:57 AM MDT 8:12 PM MDT
Civil Twilight 5:28 AM MDT 8:41 PM MDT
Nautical Twilight 4:52 AM MDT 9:17 PM MDT
Astronomical Twilight 4:13 AM MDT 9:55 PM MDT
Moon 4:07 AM MDT 6:29 PM MDT
Length of Visible Light 15h 12m
Length of Day
14h 14m
Tomorrow will be 1m 33s shorter.
Waning Crescent, 5% of the Moon is Illuminated
Today
Waning Crescent
Jul 26
New
Aug 3
First Quarter
Aug 10
Full
Aug 17
Last Quarter

Today's Extremes

State Highs State Lows

Community

WunderPhotos

Upload Photos

1,737,060 photos uploaded!

Nearby

Snow Depth

Station Depth Elevation
North Costilla 1 in 10600 ft
Tolby 0 in 10180 ft
Gallegos Peak 0 in 9800 ft
Wesner Springs 1 in 11120 ft
Bateman 0 in 9300 ft

Earthquake Activity

City Distance Mag. Time & Date
No recent earthquake activity has been reported nearby.
Minimum magnitude displayed is 2.5.

Coastal Water Temperatures

Place Temperature
No Stations Reporting

Nearby Weather Stations

Station Location Temp. Heat Index Dew Point Humidity Wind Precip. Elev Updated Type
Near Historic Downtown, Raton, NM 77.6 °F 79 °F 57 °F 49% South  at  0.0 mph - / hr 6709 ft 10:23 AM MDT Normal
RAWS BOSQUE CO, Weston, CO 81 °F 80 °F 45 °F 28% SSW  at  1 mph 0.00 in / hr 8173 ft 9:26 AM MDT MADIS
Elm St, Cokedale, CO 89.1 °F 87 °F 54 °F 31% North  at  4.5 mph 0.00 in / hr 6332 ft 10:35 AM MDT Normal
Near Trinidad State Junior College, Trinidad, CO 86.4 °F 84 °F 49 °F 28% SW  at  0.0 mph 0.00 in / hr 6070 ft 10:37 AM MDT Rapid Fire
HADS PURGATOIRE RIVER AT TRINIDAD CO, Trinidad, CO 79 °F 77 °F - - North  at  - 0.00 in / hr 5979 ft 9:15 AM MDT MADIS

Show More Stations Show Fewer Stations